TKI weather

Collin County Regional At Mc Kinney Airport
Dallas, Texas, United States

Public forecast

Using degrees Fahrenheit for public forecast. Weather courtesy of forecast.io.

METAR (pilot weather report)

Retrieved 2019/06/26 06:53 UTC (12 minutes ago):

KTKI 260653Z AUTO 16005KT 10SM CLR 23/21 A3004 RMK AO2 SLP166 T02280211

TAF (pilot weather forecast)

Closest forecast is Dallas Love Field, 23.8 nm (44.1 km) SSW. Retrieved 2019/06/26 06:22 UTC (43 minutes ago):

TAF KDAL 260520Z 2606/2706 18012KT P6SM SCT250 FM262000 18012KT P6SM VCTS SCT040CB BKN100 FM270000 17014KT P6SM FEW040